Portada
METAR-TAF:

METAR-TAF

Aeropuertos :

Aeropuerto Internacional de Túnez-Cartago

Túnez, Túnez

latitud: 36-50N, longitud: 010-14E, altitud: 3 m

Observación

El informe se hizo hace 25 minutos, a las 14:30 UTC
Viento 6 kt del oeste, variando entre suroeste y oeste-noroeste
Temperatura 18°C
Humedad 37%
Presión 1014 hPa
Visibilidad 10 km o más
Escasas nubes a una altura de 2600 ft

METAR: DTTA 181430Z 26006KT 230V290 9999 FEW026 18/03 Q1014 NOSIG

Hora: 15:55 (14:55 UTC)

Pronóstico

El informe se hizo hace 3 horas y 55 minutos, a las 11:00 UTC
Pronóstico válido del 18 a las 12 UTC al 19 a las 12 UTC
Viento 5 kt del sur-suroeste
Visibilidad 10 km o más
sin nubes por debajo de 1500 m y sin presencia de cumulonimbus.
Evolucionando progresivamente
del 18 a las 15 UTC al 18 a las 17 UTC
Viento 15 kt del norte-noroeste

TAF: DTTA 181100Z 1812/1912 20005KT CAVOK BECMG 1815/1817 34015KT

Observaciones y pronósticos meteorológicos de más de 4000 aeropuertos (mensajes METAR y TAF).

Los puntos amarillos y rojos representan las estaciones disponibles.

Ponga el ratón en el punto deseado para ver el nombre de la estación.

Haga clic para ver las observaciones y los pronósticos meteorológicos.

Para cambiar el mapa : haga clic en los botones verdes con una cruz de color negro para hacer un zoom, en el botón verde con un guión para alejar o en las flechas verdes para mapas adyacentes.


METAR-TAF: